Arbovale, West Virginia
Current Conditions -  °F | °C
As of 12:51 PM on Friday 19 Dec 2014 (Local Time) from KEKN Reporting Station
Overcast Overcast  
Wind Chill: -7°   Ceiling: 1600
Heat Index: -3°   Visibility: 10mi
Dew Point: -6°   Wind: 6mph
Humidity: 81%   Direction: 270°W
Pressure: 30.16"   Gusts: NA
Location:  38.44°N, 79.82°W
Report Text: KEKN 191751Z AUTO 27005KT 10SM OVC016 M03/M06 A3016 RMK AO2 SNB02E09 SLP242 P0000 60000 T10331061 11033 21039 58012 TSNO
Loading
Personal Weather Stations






























Interactive Weather Map New forecast layout! Learn more

10-Day Weather Forecast

Advertisements
Track Severe Weather on mobile